sensor_id;sensor_type;location;lat;lon;timestamp;P1;durP1;ratioP1;P2;durP2;ratioP2
11854;SDS011;5987;53.140;8.904;2023-06-22T00:01:23;9.83;;;5.03;;
11854;SDS011;5987;53.140;8.904;2023-06-22T00:04:27;6.60;;;5.63;;
11854;SDS011;5987;53.140;8.904;2023-06-22T00:07:31;7.93;;;5.53;;
11854;SDS011;5987;53.140;8.904;2023-06-22T00:10:36;6.07;;;5.37;;
11854;SDS011;5987;53.140;8.904;2023-06-22T00:13:40;7.63;;;5.27;;
11854;SDS011;5987;53.140;8.904;2023-06-22T00:16:44;7.37;;;5.47;;
11854;SDS011;5987;53.140;8.904;2023-06-22T00:19:50;7.70;;;5.13;;
11854;SDS011;5987;53.140;8.904;2023-06-22T00:22:55;6.23;;;4.80;;
11854;SDS011;5987;53.140;8.904;2023-06-22T00:26:01;6.73;;;5.30;;
11854;SDS011;5987;53.140;8.904;2023-06-22T00:29:05;7.63;;;5.23;;
11854;SDS011;5987;53.140;8.904;2023-06-22T00:32:09;10.10;;;5.90;;
11854;SDS011;5987;53.140;8.904;2023-06-22T00:35:12;6.60;;;5.83;;
11854;SDS011;5987;53.140;8.904;2023-06-22T00:38:16;7.47;;;5.60;;
11854;SDS011;5987;53.140;8.904;2023-06-22T00:41:21;10.00;;;5.93;;
11854;SDS011;5987;53.140;8.904;2023-06-22T00:44:25;7.07;;;5.90;;
11854;SDS011;5987;53.140;8.904;2023-06-22T00:47:28;7.60;;;6.57;;
11854;SDS011;5987;53.140;8.904;2023-06-22T00:50:33;8.37;;;6.67;;
11854;SDS011;5987;53.140;8.904;2023-06-22T00:53:38;8.90;;;7.63;;
11854;SDS011;5987;53.140;8.904;2023-06-22T00:56:43;10.93;;;8.13;;
11854;SDS011;5987;53.140;8.904;2023-06-22T00:59:47;12.67;;;7.93;;
11854;SDS011;5987;53.140;8.904;2023-06-22T01:02:52;11.80;;;7.97;;
11854;SDS011;5987;53.140;8.904;2023-06-22T01:05:58;9.53;;;7.63;;
11854;SDS011;5987;53.140;8.904;2023-06-22T01:09:12;11.13;;;8.23;;
11854;SDS011;5987;53.140;8.904;2023-06-22T01:12:24;8.63;;;6.73;;
11854;SDS011;5987;53.140;8.904;2023-06-22T01:15:33;12.10;;;8.70;;
11854;SDS011;5987;53.140;8.904;2023-06-22T01:18:47;9.67;;;7.33;;
11854;SDS011;5987;53.140;8.904;2023-06-22T01:21:58;11.13;;;7.73;;
11854;SDS011;5987;53.140;8.904;2023-06-22T01:25:07;12.77;;;7.47;;
11854;SDS011;5987;53.140;8.904;2023-06-22T01:31:46;12.10;;;8.70;;
11854;SDS011;5987;53.140;8.904;2023-06-22T01:34:53;10.63;;;7.60;;
11854;SDS011;5987;53.140;8.904;2023-06-22T01:37:57;11.17;;;8.00;;
11854;SDS011;5987;53.140;8.904;2023-06-22T01:41:01;12.47;;;8.97;;
11854;SDS011;5987;53.140;8.904;2023-06-22T01:44:08;11.87;;;8.00;;
11854;SDS011;5987;53.140;8.904;2023-06-22T01:47:14;10.53;;;8.40;;
11854;SDS011;5987;53.140;8.904;2023-06-22T01:50:18;10.80;;;8.13;;
11854;SDS011;5987;53.140;8.904;2023-06-22T01:53:23;8.57;;;7.67;;
11854;SDS011;5987;53.140;8.904;2023-06-22T01:56:27;10.93;;;8.00;;
11854;SDS011;5987;53.140;8.904;2023-06-22T01:59:34;13.67;;;8.00;;
11854;SDS011;5987;53.140;8.904;2023-06-22T02:02:47;11.37;;;7.80;;
11854;SDS011;5987;53.140;8.904;2023-06-22T02:06:01;11.43;;;8.80;;
11854;SDS011;5987;53.140;8.904;2023-06-22T02:09:14;14.90;;;9.70;;
11854;SDS011;5987;53.140;8.904;2023-06-22T02:12:24;11.50;;;8.93;;
11854;SDS011;5987;53.140;8.904;2023-06-22T02:15:32;10.70;;;8.67;;
11854;SDS011;5987;53.140;8.904;2023-06-22T02:18:36;10.73;;;8.20;;
11854;SDS011;5987;53.140;8.904;2023-06-22T02:21:41;12.43;;;9.20;;
11854;SDS011;5987;53.140;8.904;2023-06-22T02:24:45;10.33;;;7.77;;
11854;SDS011;5987;53.140;8.904;2023-06-22T02:27:49;10.93;;;8.13;;
11854;SDS011;5987;53.140;8.904;2023-06-22T02:30:54;9.60;;;7.20;;
11854;SDS011;5987;53.140;8.904;2023-06-22T02:33:58;11.90;;;7.93;;
11854;SDS011;5987;53.140;8.904;2023-06-22T02:37:03;13.53;;;8.30;;
11854;SDS011;5987;53.140;8.904;2023-06-22T02:40:07;12.30;;;9.47;;
11854;SDS011;5987;53.140;8.904;2023-06-22T02:43:12;12.80;;;9.10;;
11854;SDS011;5987;53.140;8.904;2023-06-22T02:46:17;12.27;;;8.80;;
11854;SDS011;5987;53.140;8.904;2023-06-22T02:49:21;10.90;;;8.93;;
11854;SDS011;5987;53.140;8.904;2023-06-22T02:52:25;12.60;;;10.33;;
11854;SDS011;5987;53.140;8.904;2023-06-22T02:55:29;12.63;;;9.83;;
11854;SDS011;5987;53.140;8.904;2023-06-22T02:58:33;13.67;;;9.67;;
11854;SDS011;5987;53.140;8.904;2023-06-22T03:01:41;15.23;;;9.60;;
11854;SDS011;5987;53.140;8.904;2023-06-22T03:04:45;16.00;;;10.57;;
11854;SDS011;5987;53.140;8.904;2023-06-22T03:07:50;14.53;;;11.23;;
11854;SDS011;5987;53.140;8.904;2023-06-22T03:10:54;15.83;;;10.90;;
11854;SDS011;5987;53.140;8.904;2023-06-22T03:13:58;13.90;;;10.63;;
11854;SDS011;5987;53.140;8.904;2023-06-22T03:17:04;14.88;;;10.48;;
11854;SDS011;5987;53.140;8.904;2023-06-22T03:20:09;12.20;;;9.47;;
11854;SDS011;5987;53.140;8.904;2023-06-22T03:23:14;16.23;;;11.30;;
11854;SDS011;5987;53.140;8.904;2023-06-22T03:26:18;15.43;;;11.07;;
11854;SDS011;5987;53.140;8.904;2023-06-22T03:29:22;16.10;;;11.63;;
11854;SDS011;5987;53.140;8.904;2023-06-22T03:32:31;14.77;;;10.83;;
11854;SDS011;5987;53.140;8.904;2023-06-22T03:35:35;15.90;;;11.50;;
11854;SDS011;5987;53.140;8.904;2023-06-22T03:38:40;17.13;;;13.37;;
11854;SDS011;5987;53.140;8.904;2023-06-22T03:41:43;16.83;;;12.00;;
11854;SDS011;5987;53.140;8.904;2023-06-22T03:44:47;17.57;;;12.93;;
11854;SDS011;5987;53.140;8.904;2023-06-22T03:47:53;17.33;;;13.50;;
11854;SDS011;5987;53.140;8.904;2023-06-22T03:50:58;21.27;;;13.73;;
11854;SDS011;5987;53.140;8.904;2023-06-22T03:54:02;17.17;;;12.20;;
11854;SDS011;5987;53.140;8.904;2023-06-22T03:57:06;19.50;;;12.90;;
11854;SDS011;5987;53.140;8.904;2023-06-22T04:00:11;15.37;;;11.60;;
11854;SDS011;5987;53.140;8.904;2023-06-22T04:03:18;16.60;;;12.67;;
11854;SDS011;5987;53.140;8.904;2023-06-22T04:06:23;20.80;;;13.13;;
11854;SDS011;5987;53.140;8.904;2023-06-22T04:09:26;18.30;;;13.37;;
11854;SDS011;5987;53.140;8.904;2023-06-22T04:12:30;17.30;;;12.93;;
11854;SDS011;5987;53.140;8.904;2023-06-22T04:15:34;16.37;;;12.40;;
11854;SDS011;5987;53.140;8.904;2023-06-22T04:18:39;16.57;;;12.63;;
11854;SDS011;5987;53.140;8.904;2023-06-22T04:21:43;18.40;;;12.00;;
11854;SDS011;5987;53.140;8.904;2023-06-22T04:24:50;16.77;;;11.60;;
11854;SDS011;5987;53.140;8.904;2023-06-22T04:27:54;15.70;;;11.63;;
11854;SDS011;5987;53.140;8.904;2023-06-22T04:30:58;20.17;;;12.20;;
11854;SDS011;5987;53.140;8.904;2023-06-22T04:34:06;16.10;;;10.90;;
11854;SDS011;5987;53.140;8.904;2023-06-22T04:37:10;19.13;;;12.00;;
11854;SDS011;5987;53.140;8.904;2023-06-22T04:40:17;18.17;;;13.70;;
11854;SDS011;5987;53.140;8.904;2023-06-22T04:43:21;21.83;;;13.73;;
11854;SDS011;5987;53.140;8.904;2023-06-22T04:46:25;15.93;;;11.17;;
11854;SDS011;5987;53.140;8.904;2023-06-22T04:49:30;19.73;;;13.00;;
11854;SDS011;5987;53.140;8.904;2023-06-22T04:52:36;18.27;;;11.70;;
11854;SDS011;5987;53.140;8.904;2023-06-22T04:55:40;18.13;;;11.50;;
11854;SDS011;5987;53.140;8.904;2023-06-22T04:58:47;20.93;;;12.57;;
11854;SDS011;5987;53.140;8.904;2023-06-22T05:01:53;18.87;;;10.97;;
11854;SDS011;5987;53.140;8.904;2023-06-22T05:04:58;17.10;;;12.80;;
11854;SDS011;5987;53.140;8.904;2023-06-22T05:08:02;15.03;;;10.10;;
11854;SDS011;5987;53.140;8.904;2023-06-22T05:11:08;20.20;;;12.50;;
11854;SDS011;5987;53.140;8.904;2023-06-22T05:14:12;17.30;;;11.57;;
11854;SDS011;5987;53.140;8.904;2023-06-22T05:17:16;17.60;;;12.17;;
11854;SDS011;5987;53.140;8.904;2023-06-22T05:20:22;15.47;;;11.80;;
11854;SDS011;5987;53.140;8.904;2023-06-22T05:23:25;17.00;;;11.30;;
11854;SDS011;5987;53.140;8.904;2023-06-22T05:26:32;14.63;;;11.67;;
11854;SDS011;5987;53.140;8.904;2023-06-22T05:29:37;15.60;;;11.57;;
11854;SDS011;5987;53.140;8.904;2023-06-22T05:32:41;17.27;;;11.23;;
11854;SDS011;5987;53.140;8.904;2023-06-22T05:35:47;18.27;;;10.73;;
11854;SDS011;5987;53.140;8.904;2023-06-22T05:38:51;13.67;;;9.97;;
11854;SDS011;5987;53.140;8.904;2023-06-22T05:41:55;16.27;;;10.50;;
11854;SDS011;5987;53.140;8.904;2023-06-22T05:44:59;15.33;;;9.73;;
11854;SDS011;5987;53.140;8.904;2023-06-22T05:48:03;15.77;;;10.40;;
11854;SDS011;5987;53.140;8.904;2023-06-22T05:51:09;15.20;;;10.43;;
11854;SDS011;5987;53.140;8.904;2023-06-22T05:54:13;12.10;;;8.47;;
11854;SDS011;5987;53.140;8.904;2023-06-22T05:57:19;14.10;;;8.80;;
11854;SDS011;5987;53.140;8.904;2023-06-22T06:00:24;16.70;;;8.60;;
11854;SDS011;5987;53.140;8.904;2023-06-22T06:03:28;13.60;;;9.17;;
11854;SDS011;5987;53.140;8.904;2023-06-22T06:06:33;16.00;;;9.27;;
11854;SDS011;5987;53.140;8.904;2023-06-22T06:09:38;13.07;;;9.03;;
11854;SDS011;5987;53.140;8.904;2023-06-22T06:12:42;11.03;;;6.87;;
11854;SDS011;5987;53.140;8.904;2023-06-22T06:15:46;11.07;;;7.53;;
11854;SDS011;5987;53.140;8.904;2023-06-22T06:18:53;14.67;;;7.97;;
11854;SDS011;5987;53.140;8.904;2023-06-22T06:21:59;13.73;;;8.87;;
11854;SDS011;5987;53.140;8.904;2023-06-22T06:25:03;11.60;;;7.67;;
11854;SDS011;5987;53.140;8.904;2023-06-22T06:28:07;14.07;;;8.67;;
11854;SDS011;5987;53.140;8.904;2023-06-22T06:31:11;12.93;;;8.83;;
11854;SDS011;5987;53.140;8.904;2023-06-22T06:34:18;12.17;;;7.70;;
11854;SDS011;5987;53.140;8.904;2023-06-22T06:37:24;14.37;;;8.60;;
11854;SDS011;5987;53.140;8.904;2023-06-22T06:40:30;11.87;;;8.03;;
11854;SDS011;5987;53.140;8.904;2023-06-22T06:43:34;13.37;;;8.80;;
11854;SDS011;5987;53.140;8.904;2023-06-22T06:46:38;9.90;;;7.30;;
11854;SDS011;5987;53.140;8.904;2023-06-22T06:49:43;11.77;;;8.70;;
11854;SDS011;5987;53.140;8.904;2023-06-22T06:52:54;11.58;;;8.04;;
11854;SDS011;5987;53.140;8.904;2023-06-22T06:56:00;9.40;;;7.23;;
11854;SDS011;5987;53.140;8.904;2023-06-22T06:59:05;11.57;;;7.67;;
11854;SDS011;5987;53.140;8.904;2023-06-22T07:02:08;10.27;;;7.33;;
11854;SDS011;5987;53.140;8.904;2023-06-22T07:05:12;10.77;;;7.13;;
11854;SDS011;5987;53.140;8.904;2023-06-22T07:08:17;9.80;;;6.00;;
11854;SDS011;5987;53.140;8.904;2023-06-22T07:11:21;11.43;;;6.83;;
11854;SDS011;5987;53.140;8.904;2023-06-22T07:14:25;11.73;;;8.23;;
11854;SDS011;5987;53.140;8.904;2023-06-22T07:17:30;10.87;;;7.27;;
11854;SDS011;5987;53.140;8.904;2023-06-22T07:20:34;10.30;;;6.60;;
11854;SDS011;5987;53.140;8.904;2023-06-22T07:23:39;12.20;;;6.67;;
11854;SDS011;5987;53.140;8.904;2023-06-22T07:26:43;10.23;;;7.67;;
11854;SDS011;5987;53.140;8.904;2023-06-22T07:29:48;10.27;;;6.33;;
11854;SDS011;5987;53.140;8.904;2023-06-22T07:32:51;8.07;;;5.33;;
11854;SDS011;5987;53.140;8.904;2023-06-22T07:35:55;6.17;;;5.00;;
11854;SDS011;5987;53.140;8.904;2023-06-22T07:39:00;7.00;;;5.80;;
11854;SDS011;5987;53.140;8.904;2023-06-22T07:42:05;7.00;;;5.03;;
11854;SDS011;5987;53.140;8.904;2023-06-22T07:45:11;10.17;;;5.90;;
11854;SDS011;5987;53.140;8.904;2023-06-22T07:48:14;7.13;;;4.90;;
11854;SDS011;5987;53.140;8.904;2023-06-22T07:51:18;6.67;;;4.30;;
11854;SDS011;5987;53.140;8.904;2023-06-22T07:54:23;5.93;;;4.40;;
11854;SDS011;5987;53.140;8.904;2023-06-22T07:57:28;4.73;;;3.90;;
11854;SDS011;5987;53.140;8.904;2023-06-22T08:00:36;7.77;;;4.47;;
11854;SDS011;5987;53.140;8.904;2023-06-22T08:03:39;7.73;;;4.83;;
11854;SDS011;5987;53.140;8.904;2023-06-22T08:06:43;8.77;;;4.97;;
11854;SDS011;5987;53.140;8.904;2023-06-22T08:09:49;6.00;;;4.00;;
11854;SDS011;5987;53.140;8.904;2023-06-22T08:12:52;5.87;;;3.70;;
11854;SDS011;5987;53.140;8.904;2023-06-22T08:15:57;5.70;;;5.10;;
11854;SDS011;5987;53.140;8.904;2023-06-22T08:19:00;6.60;;;3.47;;
11854;SDS011;5987;53.140;8.904;2023-06-22T08:22:04;5.00;;;3.20;;
11854;SDS011;5987;53.140;8.904;2023-06-22T08:25:10;5.53;;;3.53;;
11854;SDS011;5987;53.140;8.904;2023-06-22T08:28:15;4.43;;;3.33;;
11854;SDS011;5987;53.140;8.904;2023-06-22T08:31:19;5.77;;;3.63;;
11854;SDS011;5987;53.140;8.904;2023-06-22T08:34:24;5.23;;;4.07;;
11854;SDS011;5987;53.140;8.904;2023-06-22T08:37:29;4.93;;;3.50;;
11854;SDS011;5987;53.140;8.904;2023-06-22T08:40:39;5.10;;;3.43;;
11854;SDS011;5987;53.140;8.904;2023-06-22T08:43:44;4.43;;;3.10;;
11854;SDS011;5987;53.140;8.904;2023-06-22T08:46:49;7.53;;;3.50;;
11854;SDS011;5987;53.140;8.904;2023-06-22T08:49:53;5.33;;;3.80;;
11854;SDS011;5987;53.140;8.904;2023-06-22T08:52:57;6.67;;;3.43;;
11854;SDS011;5987;53.140;8.904;2023-06-22T08:56:02;7.00;;;4.10;;
11854;SDS011;5987;53.140;8.904;2023-06-22T08:59:07;4.87;;;3.40;;
11854;SDS011;5987;53.140;8.904;2023-06-22T09:02:10;6.07;;;4.40;;
11854;SDS011;5987;53.140;8.904;2023-06-22T09:05:16;7.00;;;3.87;;
11854;SDS011;5987;53.140;8.904;2023-06-22T09:08:20;5.43;;;2.80;;
11854;SDS011;5987;53.140;8.904;2023-06-22T09:11:25;8.83;;;3.77;;
11854;SDS011;5987;53.140;8.904;2023-06-22T09:14:30;6.53;;;3.90;;
11854;SDS011;5987;53.140;8.904;2023-06-22T09:17:35;4.97;;;4.00;;
11854;SDS011;5987;53.140;8.904;2023-06-22T09:20:38;4.30;;;3.23;;
11854;SDS011;5987;53.140;8.904;2023-06-22T09:23:42;4.27;;;3.50;;
11854;SDS011;5987;53.140;8.904;2023-06-22T09:26:49;5.13;;;3.80;;
11854;SDS011;5987;53.140;8.904;2023-06-22T09:29:53;5.83;;;3.97;;
11854;SDS011;5987;53.140;8.904;2023-06-22T09:32:58;5.00;;;3.47;;
11854;SDS011;5987;53.140;8.904;2023-06-22T09:36:03;5.03;;;4.10;;
11854;SDS011;5987;53.140;8.904;2023-06-22T09:39:08;3.50;;;3.20;;
11854;SDS011;5987;53.140;8.904;2023-06-22T09:42:14;4.33;;;3.13;;
11854;SDS011;5987;53.140;8.904;2023-06-22T09:45:25;5.90;;;3.33;;
11854;SDS011;5987;53.140;8.904;2023-06-22T09:48:29;4.33;;;3.23;;
11854;SDS011;5987;53.140;8.904;2023-06-22T09:51:33;4.47;;;3.50;;
11854;SDS011;5987;53.140;8.904;2023-06-22T09:54:37;4.47;;;3.13;;
11854;SDS011;5987;53.140;8.904;2023-06-22T09:57:42;5.27;;;3.27;;
11854;SDS011;5987;53.140;8.904;2023-06-22T10:00:46;5.60;;;3.33;;
11854;SDS011;5987;53.140;8.904;2023-06-22T10:03:51;5.60;;;3.73;;
11854;SDS011;5987;53.140;8.904;2023-06-22T10:06:57;5.27;;;3.63;;
11854;SDS011;5987;53.140;8.904;2023-06-22T10:10:01;4.07;;;3.27;;
11854;SDS011;5987;53.140;8.904;2023-06-22T10:13:08;3.90;;;3.27;;
11854;SDS011;5987;53.140;8.904;2023-06-22T10:16:13;4.77;;;3.53;;
11854;SDS011;5987;53.140;8.904;2023-06-22T10:19:18;3.97;;;2.97;;
11854;SDS011;5987;53.140;8.904;2023-06-22T10:22:21;6.90;;;3.70;;
11854;SDS011;5987;53.140;8.904;2023-06-22T10:25:26;3.90;;;3.30;;
11854;SDS011;5987;53.140;8.904;2023-06-22T10:28:32;4.77;;;2.77;;
11854;SDS011;5987;53.140;8.904;2023-06-22T10:31:37;4.80;;;4.00;;
11854;SDS011;5987;53.140;8.904;2023-06-22T10:34:41;3.93;;;3.63;;
11854;SDS011;5987;53.140;8.904;2023-06-22T10:37:45;4.00;;;2.67;;
11854;SDS011;5987;53.140;8.904;2023-06-22T10:40:49;3.57;;;3.03;;
11854;SDS011;5987;53.140;8.904;2023-06-22T10:43:55;5.40;;;3.37;;
11854;SDS011;5987;53.140;8.904;2023-06-22T10:46:59;3.93;;;3.50;;
11854;SDS011;5987;53.140;8.904;2023-06-22T10:50:03;4.83;;;3.37;;
11854;SDS011;5987;53.140;8.904;2023-06-22T10:53:09;4.80;;;3.57;;
11854;SDS011;5987;53.140;8.904;2023-06-22T10:56:12;6.00;;;3.47;;
11854;SDS011;5987;53.140;8.904;2023-06-22T10:59:17;3.90;;;3.00;;
11854;SDS011;5987;53.140;8.904;2023-06-22T11:02:23;5.07;;;3.03;;
11854;SDS011;5987;53.140;8.904;2023-06-22T11:05:30;6.13;;;3.00;;
11854;SDS011;5987;53.140;8.904;2023-06-22T11:08:34;3.17;;;2.80;;
11854;SDS011;5987;53.140;8.904;2023-06-22T11:11:38;4.37;;;3.43;;
11854;SDS011;5987;53.140;8.904;2023-06-22T11:14:43;4.20;;;3.17;;
11854;SDS011;5987;53.140;8.904;2023-06-22T11:17:47;3.80;;;3.20;;
11854;SDS011;5987;53.140;8.904;2023-06-22T11:20:51;3.77;;;3.37;;
11854;SDS011;5987;53.140;8.904;2023-06-22T11:23:54;4.10;;;3.20;;
11854;SDS011;5987;53.140;8.904;2023-06-22T11:26:58;3.80;;;3.10;;
11854;SDS011;5987;53.140;8.904;2023-06-22T11:30:04;4.30;;;3.43;;
11854;SDS011;5987;53.140;8.904;2023-06-22T11:33:09;3.50;;;3.20;;
11854;SDS011;5987;53.140;8.904;2023-06-22T11:36:13;6.27;;;3.03;;
11854;SDS011;5987;53.140;8.904;2023-06-22T11:39:18;5.60;;;3.10;;
11854;SDS011;5987;53.140;8.904;2023-06-22T11:42:34;3.70;;;3.33;;
11854;SDS011;5987;53.140;8.904;2023-06-22T11:45:40;5.67;;;3.50;;
11854;SDS011;5987;53.140;8.904;2023-06-22T11:48:43;4.03;;;3.60;;
11854;SDS011;5987;53.140;8.904;2023-06-22T11:51:47;3.40;;;2.90;;
11854;SDS011;5987;53.140;8.904;2023-06-22T11:54:51;3.83;;;3.23;;
11854;SDS011;5987;53.140;8.904;2023-06-22T11:57:55;4.07;;;2.83;;
11854;SDS011;5987;53.140;8.904;2023-06-22T12:01:06;5.17;;;3.33;;
11854;SDS011;5987;53.140;8.904;2023-06-22T12:04:10;4.57;;;3.20;;
11854;SDS011;5987;53.140;8.904;2023-06-22T12:07:14;3.40;;;2.70;;
11854;SDS011;5987;53.140;8.904;2023-06-22T12:10:17;3.10;;;2.73;;
11854;SDS011;5987;53.140;8.904;2023-06-22T12:13:21;3.43;;;2.90;;
11854;SDS011;5987;53.140;8.904;2023-06-22T12:16:27;4.07;;;3.37;;
11854;SDS011;5987;53.140;8.904;2023-06-22T12:19:30;3.77;;;3.23;;
11854;SDS011;5987;53.140;8.904;2023-06-22T12:22:34;6.07;;;3.13;;
11854;SDS011;5987;53.140;8.904;2023-06-22T12:25:39;3.57;;;3.23;;
11854;SDS011;5987;53.140;8.904;2023-06-22T12:28:43;3.47;;;2.70;;
11854;SDS011;5987;53.140;8.904;2023-06-22T12:31:48;2.97;;;2.70;;
11854;SDS011;5987;53.140;8.904;2023-06-22T12:34:52;5.30;;;3.20;;
11854;SDS011;5987;53.140;8.904;2023-06-22T12:37:56;3.20;;;2.90;;
11854;SDS011;5987;53.140;8.904;2023-06-22T12:41:00;8.63;;;3.40;;
11854;SDS011;5987;53.140;8.904;2023-06-22T12:44:04;4.87;;;3.10;;
11854;SDS011;5987;53.140;8.904;2023-06-22T12:47:09;3.50;;;3.03;;
11854;SDS011;5987;53.140;8.904;2023-06-22T12:50:15;5.97;;;3.50;;
11854;SDS011;5987;53.140;8.904;2023-06-22T12:53:19;3.90;;;2.83;;
11854;SDS011;5987;53.140;8.904;2023-06-22T12:56:24;4.33;;;3.10;;
11854;SDS011;5987;53.140;8.904;2023-06-22T12:59:28;3.93;;;3.30;;
11854;SDS011;5987;53.140;8.904;2023-06-22T13:02:33;4.20;;;3.03;;
11854;SDS011;5987;53.140;8.904;2023-06-22T13:05:38;3.77;;;2.80;;
11854;SDS011;5987;53.140;8.904;2023-06-22T13:08:41;3.90;;;3.33;;
11854;SDS011;5987;53.140;8.904;2023-06-22T13:12:07;4.73;;;3.30;;
11854;SDS011;5987;53.140;8.904;2023-06-22T13:15:11;4.13;;;3.20;;
11854;SDS011;5987;53.140;8.904;2023-06-22T13:18:16;4.27;;;3.20;;
11854;SDS011;5987;53.140;8.904;2023-06-22T13:21:20;5.77;;;3.23;;
11854;SDS011;5987;53.140;8.904;2023-06-22T13:24:24;4.10;;;3.43;;
11854;SDS011;5987;53.140;8.904;2023-06-22T13:27:28;3.70;;;3.40;;
11854;SDS011;5987;53.140;8.904;2023-06-22T13:30:32;4.23;;;3.70;;
11854;SDS011;5987;53.140;8.904;2023-06-22T13:33:38;5.20;;;3.50;;
11854;SDS011;5987;53.140;8.904;2023-06-22T13:36:42;5.30;;;3.63;;
11854;SDS011;5987;53.140;8.904;2023-06-22T13:39:47;4.63;;;3.27;;
11854;SDS011;5987;53.140;8.904;2023-06-22T13:42:51;3.80;;;3.40;;
11854;SDS011;5987;53.140;8.904;2023-06-22T13:45:57;5.20;;;4.00;;
11854;SDS011;5987;53.140;8.904;2023-06-22T13:49:02;4.40;;;3.83;;
11854;SDS011;5987;53.140;8.904;2023-06-22T13:52:06;4.73;;;3.60;;
11854;SDS011;5987;53.140;8.904;2023-06-22T13:55:15;5.33;;;3.80;;
11854;SDS011;5987;53.140;8.904;2023-06-22T13:58:21;4.57;;;3.43;;
11854;SDS011;5987;53.140;8.904;2023-06-22T14:01:24;3.97;;;3.53;;
11854;SDS011;5987;53.140;8.904;2023-06-22T14:04:30;6.13;;;4.03;;
11854;SDS011;5987;53.140;8.904;2023-06-22T14:07:34;7.03;;;4.40;;
11854;SDS011;5987;53.140;8.904;2023-06-22T14:10:37;5.33;;;4.00;;
11854;SDS011;5987;53.140;8.904;2023-06-22T14:13:41;5.47;;;3.53;;
11854;SDS011;5987;53.140;8.904;2023-06-22T14:16:45;4.57;;;4.00;;
11854;SDS011;5987;53.140;8.904;2023-06-22T14:19:52;6.30;;;4.00;;
11854;SDS011;5987;53.140;8.904;2023-06-22T14:22:56;4.60;;;3.90;;
11854;SDS011;5987;53.140;8.904;2023-06-22T14:26:00;8.17;;;4.23;;
11854;SDS011;5987;53.140;8.904;2023-06-22T14:29:04;4.33;;;3.93;;
11854;SDS011;5987;53.140;8.904;2023-06-22T14:32:08;7.57;;;4.13;;
11854;SDS011;5987;53.140;8.904;2023-06-22T14:35:13;5.20;;;3.93;;
11854;SDS011;5987;53.140;8.904;2023-06-22T14:38:18;4.53;;;3.90;;
11854;SDS011;5987;53.140;8.904;2023-06-22T14:41:22;6.17;;;3.80;;
11854;SDS011;5987;53.140;8.904;2023-06-22T14:44:26;4.73;;;3.70;;
11854;SDS011;5987;53.140;8.904;2023-06-22T14:47:30;6.20;;;3.90;;
11854;SDS011;5987;53.140;8.904;2023-06-22T14:50:35;4.37;;;3.97;;
11854;SDS011;5987;53.140;8.904;2023-06-22T14:53:39;6.10;;;4.23;;
11854;SDS011;5987;53.140;8.904;2023-06-22T14:56:44;6.30;;;4.03;;
11854;SDS011;5987;53.140;8.904;2023-06-22T14:59:48;6.10;;;4.40;;
11854;SDS011;5987;53.140;8.904;2023-06-22T15:02:52;4.37;;;3.87;;
11854;SDS011;5987;53.140;8.904;2023-06-22T15:05:58;4.57;;;4.07;;
11854;SDS011;5987;53.140;8.904;2023-06-22T15:09:02;4.87;;;3.63;;
11854;SDS011;5987;53.140;8.904;2023-06-22T15:12:06;6.13;;;3.67;;
11854;SDS011;5987;53.140;8.904;2023-06-22T15:15:18;5.33;;;4.83;;
11854;SDS011;5987;53.140;8.904;2023-06-22T15:18:22;5.93;;;4.47;;
11854;SDS011;5987;53.140;8.904;2023-06-22T15:21:27;5.73;;;4.13;;
11854;SDS011;5987;53.140;8.904;2023-06-22T15:24:31;5.93;;;4.03;;
11854;SDS011;5987;53.140;8.904;2023-06-22T15:27:35;4.97;;;4.47;;
11854;SDS011;5987;53.140;8.904;2023-06-22T15:30:39;6.00;;;4.77;;
11854;SDS011;5987;53.140;8.904;2023-06-22T15:33:43;10.13;;;5.07;;
11854;SDS011;5987;53.140;8.904;2023-06-22T15:36:48;7.17;;;5.20;;
11854;SDS011;5987;53.140;8.904;2023-06-22T15:39:53;6.73;;;5.43;;
11854;SDS011;5987;53.140;8.904;2023-06-22T15:42:58;5.30;;;4.80;;
11854;SDS011;5987;53.140;8.904;2023-06-22T15:46:02;6.30;;;5.10;;
11854;SDS011;5987;53.140;8.904;2023-06-22T15:49:06;4.87;;;4.37;;
11854;SDS011;5987;53.140;8.904;2023-06-22T15:52:11;5.90;;;5.20;;
11854;SDS011;5987;53.140;8.904;2023-06-22T15:55:19;6.00;;;4.23;;
11854;SDS011;5987;53.140;8.904;2023-06-22T15:58:23;10.27;;;5.77;;
11854;SDS011;5987;53.140;8.904;2023-06-22T16:01:27;6.23;;;4.87;;
11854;SDS011;5987;53.140;8.904;2023-06-22T16:04:31;6.47;;;5.70;;
11854;SDS011;5987;53.140;8.904;2023-06-22T16:07:37;9.23;;;6.40;;
11854;SDS011;5987;53.140;8.904;2023-06-22T16:10:42;5.47;;;4.70;;
11854;SDS011;5987;53.140;8.904;2023-06-22T16:13:46;10.03;;;6.37;;
11854;SDS011;5987;53.140;8.904;2023-06-22T16:16:50;6.73;;;5.83;;
11854;SDS011;5987;53.140;8.904;2023-06-22T16:19:54;12.40;;;7.57;;
11854;SDS011;5987;53.140;8.904;2023-06-22T16:23:01;9.27;;;8.33;;
11854;SDS011;5987;53.140;8.904;2023-06-22T16:26:05;14.13;;;9.93;;
11854;SDS011;5987;53.140;8.904;2023-06-22T16:29:09;12.50;;;8.53;;
11854;SDS011;5987;53.140;8.904;2023-06-22T16:32:13;12.27;;;9.60;;
11854;SDS011;5987;53.140;8.904;2023-06-22T16:35:17;11.73;;;9.63;;
11854;SDS011;5987;53.140;8.904;2023-06-22T16:38:22;13.27;;;10.23;;
11854;SDS011;5987;53.140;8.904;2023-06-22T16:41:26;11.73;;;10.10;;
11854;SDS011;5987;53.140;8.904;2023-06-22T16:44:31;13.47;;;11.00;;
11854;SDS011;5987;53.140;8.904;2023-06-22T16:47:36;14.67;;;10.77;;
11854;SDS011;5987;53.140;8.904;2023-06-22T16:50:39;14.27;;;11.53;;
11854;SDS011;5987;53.140;8.904;2023-06-22T16:53:44;16.43;;;11.17;;
11854;SDS011;5987;53.140;8.904;2023-06-22T16:56:57;12.77;;;10.17;;
11854;SDS011;5987;53.140;8.904;2023-06-22T17:00:04;13.83;;;10.10;;
11854;SDS011;5987;53.140;8.904;2023-06-22T17:03:14;14.37;;;10.87;;
11854;SDS011;5987;53.140;8.904;2023-06-22T17:06:36;13.57;;;10.00;;
11854;SDS011;5987;53.140;8.904;2023-06-22T17:09:52;14.00;;;11.47;;
11854;SDS011;5987;53.140;8.904;2023-06-22T17:13:00;14.93;;;10.77;;
11854;SDS011;5987;53.140;8.904;2023-06-22T17:16:07;17.10;;;11.90;;
11854;SDS011;5987;53.140;8.904;2023-06-22T17:19:13;13.93;;;11.23;;
11854;SDS011;5987;53.140;8.904;2023-06-22T17:22:18;14.33;;;11.57;;
11854;SDS011;5987;53.140;8.904;2023-06-22T17:25:23;12.60;;;10.00;;
11854;SDS011;5987;53.140;8.904;2023-06-22T17:28:45;14.00;;;10.60;;
11854;SDS011;5987;53.140;8.904;2023-06-22T17:31:50;14.17;;;10.07;;
11854;SDS011;5987;53.140;8.904;2023-06-22T17:34:58;12.13;;;9.10;;
11854;SDS011;5987;53.140;8.904;2023-06-22T17:38:02;13.83;;;10.60;;
11854;SDS011;5987;53.140;8.904;2023-06-22T17:41:07;14.67;;;9.53;;
11854;SDS011;5987;53.140;8.904;2023-06-22T17:44:11;11.93;;;9.90;;
11854;SDS011;5987;53.140;8.904;2023-06-22T17:47:22;10.60;;;8.97;;
11854;SDS011;5987;53.140;8.904;2023-06-22T17:50:26;10.87;;;9.13;;
11854;SDS011;5987;53.140;8.904;2023-06-22T17:53:31;10.83;;;8.63;;
11854;SDS011;5987;53.140;8.904;2023-06-22T17:56:36;12.23;;;9.23;;
11854;SDS011;5987;53.140;8.904;2023-06-22T17:59:40;13.93;;;10.03;;
11854;SDS011;5987;53.140;8.904;2023-06-22T18:02:44;11.37;;;9.20;;
11854;SDS011;5987;53.140;8.904;2023-06-22T18:05:48;10.90;;;8.60;;
11854;SDS011;5987;53.140;8.904;2023-06-22T18:08:53;11.27;;;8.90;;
11854;SDS011;5987;53.140;8.904;2023-06-22T18:12:06;9.90;;;8.50;;
11854;SDS011;5987;53.140;8.904;2023-06-22T18:15:13;15.40;;;11.97;;
11854;SDS011;5987;53.140;8.904;2023-06-22T18:18:17;12.10;;;8.53;;
11854;SDS011;5987;53.140;8.904;2023-06-22T18:21:21;10.17;;;8.10;;
11854;SDS011;5987;53.140;8.904;2023-06-22T18:24:26;13.43;;;10.10;;
11854;SDS011;5987;53.140;8.904;2023-06-22T18:27:34;10.53;;;9.37;;
11854;SDS011;5987;53.140;8.904;2023-06-22T18:30:41;10.50;;;8.57;;
11854;SDS011;5987;53.140;8.904;2023-06-22T18:33:46;11.27;;;8.73;;
11854;SDS011;5987;53.140;8.904;2023-06-22T18:36:53;12.33;;;8.63;;
11854;SDS011;5987;53.140;8.904;2023-06-22T18:40:02;13.03;;;9.90;;
11854;SDS011;5987;53.140;8.904;2023-06-22T18:43:11;14.83;;;9.27;;
11854;SDS011;5987;53.140;8.904;2023-06-22T18:46:31;13.57;;;9.57;;